Time;durP1;ratioP1;P1;durP2;ratioP2;P2;SDS_P1;SDS_P2;PMS_P1;PMS_P2;Temp;Humidity;BMP_temperature;BMP_pressure;BME280_temperature;BME280_humidity;BME280_pressure;Samples;Min_cycle;Max_cycle;Signal;HPM_P1;HPM_P2
2022/07/05 00:00:46;;;;;;;;;;;20.50;96.70;;;;;;4953065;28;20013;-76
2022/07/05 00:03:13;;;;;;;;;;;20.50;96.60;;;;;;4930111;28;19962;-76
2022/07/05 00:05:40;;;;;;;;;;;20.50;96.60;;;;;;5036436;23;19955;-78
2022/07/05 00:08:07;;;;;;;;;;;20.50;96.60;;;;;;4944749;23;19933;-76
2022/07/05 00:10:34;;;;;;;;;;;20.40;96.60;;;;;;4923360;28;20085;-76
2022/07/05 00:13:00;;;;;;;;;;;20.40;96.60;;;;;;4916695;29;20466;-76
2022/07/05 00:15:27;;;;;;;;;;;20.40;96.60;;;;;;4927595;29;19931;-76
2022/07/05 00:17:56;;;;;;;;;;;20.40;96.60;;;;;;4938844;28;20390;-74
2022/07/05 00:20:23;;;;;;;;;;;20.40;96.60;;;;;;4917259;29;19928;-75
2022/07/05 00:22:50;;;;;;;;;;;20.40;96.70;;;;;;4930871;29;20391;-75
2022/07/05 00:25:17;;;;;;;;;;;20.30;96.60;;;;;;4933180;29;20368;-76
2022/07/05 00:27:43;;;;;;;;;;;20.30;96.60;;;;;;4938740;28;20417;-76
2022/07/05 00:30:11;;;;;;;;;;;20.30;96.60;;;;;;4931245;29;20404;-75
2022/07/05 00:32:38;;;;;;;;;;;20.30;96.60;;;;;;4945385;28;19926;-74
2022/07/05 00:35:07;;;;;;;;;;;20.30;96.60;;;;;;4929689;29;20374;-75
2022/07/05 00:37:34;;;;;;;;;;;20.30;96.70;;;;;;4924409;29;19939;-74
2022/07/05 00:40:01;;;;;;;;;;;20.30;96.70;;;;;;4933208;29;20050;-75
2022/07/05 00:42:28;;;;;;;;;;;20.20;96.60;;;;;;4929355;29;20033;-75
2022/07/05 00:44:55;;;;;;;;;;;20.20;96.60;;;;;;4926490;29;20042;-74
2022/07/05 00:47:22;;;;;;;;;;;20.20;96.60;;;;;;4927491;29;20413;-75
2022/07/05 00:49:49;;;;;;;;;;;20.20;96.60;;;;;;4945091;28;19966;-75
2022/07/05 00:52:18;;;;;;;;;;;20.10;96.60;;;;;;4926480;28;19931;-75
2022/07/05 00:54:44;;;;;;;;;;;20.10;96.60;;;;;;4931824;28;19931;-74
2022/07/05 00:57:11;;;;;;;;;;;20.10;96.60;;;;;;4940666;28;20312;-75
2022/07/05 00:59:38;;;;;;;;;;;20.10;96.60;;;;;;4925609;29;19958;-75
2022/07/05 01:02:05;;;;;;;;;;;20.10;96.60;;;;;;4940007;28;19950;-75
2022/07/05 01:04:32;;;;;;;;;;;20.10;96.60;;;;;;4922461;29;19931;-75
2022/07/05 01:06:59;;;;;;;;;;;20.10;96.60;;;;;;4930733;29;20283;-74
2022/07/05 01:09:28;;;;;;;;;;;20.00;96.60;;;;;;4918351;29;19927;-74
2022/07/05 01:11:55;;;;;;;;;;;20.00;96.60;;;;;;4924131;29;19935;-75
2022/07/05 01:14:24;;;;;;;;;;;20.00;96.60;;;;;;4922052;29;19927;-75
2022/07/05 01:16:53;;;;;;;;;;;20.00;96.60;;;;;;4934871;28;20033;-75
2022/07/05 01:19:20;;;;;;;;;;;20.00;96.60;;;;;;4938624;28;19927;-75
2022/07/05 01:21:48;;;;;;;;;;;19.90;96.60;;;;;;4937133;28;19927;-75
2022/07/05 01:24:17;;;;;;;;;;;19.90;96.60;;;;;;4930345;29;19926;-77
2022/07/05 01:26:45;;;;;;;;;;;19.90;96.60;;;;;;4927689;29;19927;-76
2022/07/05 01:29:11;;;;;;;;;;;19.90;96.60;;;;;;4948542;28;19948;-76
2022/07/05 01:31:39;;;;;;;;;;;19.90;96.60;;;;;;4944096;28;19927;-75
2022/07/05 01:34:06;;;;;;;;;;;19.90;96.60;;;;;;4925884;29;19946;-76
2022/07/05 01:36:33;;;;;;;;;;;19.90;96.50;;;;;;4922361;29;20389;-79
2022/07/05 01:39:00;;;;;;;;;;;19.80;96.50;;;;;;4956177;28;19934;-77
2022/07/05 01:41:28;;;;;;;;;;;19.80;96.50;;;;;;4946712;28;19927;-78
2022/07/05 01:43:55;;;;;;;;;;;19.80;96.50;;;;;;4937053;28;20066;-78
2022/07/05 01:46:23;;;;;;;;;;;19.80;96.50;;;;;;4926909;29;20449;-76
2022/07/05 01:48:51;;;;;;;;;;;19.80;96.50;;;;;;4931500;29;20401;-75
2022/07/05 01:51:19;;;;;;;;;;;19.70;96.40;;;;;;4925463;29;20333;-77
2022/07/05 01:53:47;;;;;;;;;;;19.70;96.40;;;;;;4946171;28;19931;-75
2022/07/05 01:56:14;;;;;;;;;;;19.70;96.40;;;;;;4938059;28;19949;-76
2022/07/05 01:58:42;;;;;;;;;;;19.70;96.40;;;;;;4942801;28;20003;-75
2022/07/05 02:01:09;;;;;;;;;;;19.70;96.40;;;;;;4939114;28;19927;-79
2022/07/05 02:03:37;;;;;;;;;;;19.60;96.30;;;;;;4932746;28;19934;-75
2022/07/05 02:06:06;;;;;;;;;;;19.60;96.30;;;;;;4944369;28;19934;-76
2022/07/05 02:08:32;;;;;;;;;;;19.60;96.30;;;;;;4946136;28;19962;-75
2022/07/05 02:10:59;;;;;;;;;;;19.60;96.30;;;;;;4943657;28;19942;-75
2022/07/05 02:13:26;;;;;;;;;;;19.50;96.30;;;;;;4931749;28;19931;-76
2022/07/05 02:15:55;;;;;;;;;;;19.50;96.20;;;;;;4941442;28;19931;-76
2022/07/05 02:18:22;;;;;;;;;;;19.50;96.20;;;;;;4946190;28;20322;-75
2022/07/05 02:20:50;;;;;;;;;;;19.50;96.10;;;;;;4941948;28;19982;-76
2022/07/05 02:23:17;;;;;;;;;;;19.50;96.10;;;;;;4946084;28;20370;-76
2022/07/05 02:25:44;;;;;;;;;;;19.50;96.10;;;;;;4942682;28;19970;-76
2022/07/05 02:28:15;;;;;;;;;;;19.40;96.00;;;;;;4945940;28;19931;-75
2022/07/05 02:30:45;;;;;;;;;;;19.40;95.90;;;;;;4935413;28;19970;-75
2022/07/05 02:33:13;;;;;;;;;;;;;;;;;;4949879;28;19931;-75
2022/07/05 02:35:41;;;;;;;;;;;19.40;95.70;;;;;;4911170;29;19927;-76
2022/07/05 02:38:08;;;;;;;;;;;19.30;95.90;;;;;;4932560;28;19938;-75
2022/07/05 02:40:35;;;;;;;;;;;19.30;95.90;;;;;;4924240;29;19930;-76
2022/07/05 02:43:03;;;;;;;;;;;19.30;95.90;;;;;;4908553;29;19941;-79
2022/07/05 02:45:31;;;;;;;;;;;19.30;96.00;;;;;;4938128;28;20017;-77
2022/07/05 02:48:00;;;;;;;;;;;19.30;96.00;;;;;;4939861;28;19969;-75
2022/07/05 02:50:29;;;;;;;;;;;19.20;95.90;;;;;;4941907;28;20316;-77
2022/07/05 02:52:58;;;;;;;;;;;19.20;95.80;;;;;;4936590;28;19931;-78
2022/07/05 02:55:25;;;;;;;;;;;19.20;95.90;;;;;;4945451;28;19927;-78
2022/07/05 02:57:53;;;;;;;;;;;19.20;95.90;;;;;;4946973;28;19934;-77
2022/07/05 03:00:21;;;;;;;;;;;19.10;95.80;;;;;;4940858;28;19994;-75
2022/07/05 03:02:49;;;;;;;;;;;19.10;95.80;;;;;;4937174;28;19935;-78
2022/07/05 03:05:16;;;;;;;;;;;19.10;95.80;;;;;;4941154;28;19934;-75
2022/07/05 03:07:53;;;;;;;;;;;19.10;95.70;;;;;;4936838;28;20010;-75
2022/07/05 03:10:22;;;;;;;;;;;19.10;95.70;;;;;;4943168;28;19934;-75
2022/07/05 03:12:49;;;;;;;;;;;19.00;95.70;;;;;;4939116;28;19930;-76
2022/07/05 03:15:16;;;;;;;;;;;19.00;95.70;;;;;;4937330;28;19927;-76
2022/07/05 03:17:43;;;;;;;;;;;19.00;95.70;;;;;;4937708;28;19989;-77
2022/07/05 03:20:14;;;;;;;;;;;19.00;95.70;;;;;;4935014;28;20428;-78
2022/07/05 03:22:41;;;;;;;;;;;19.00;95.70;;;;;;4918364;29;20077;-75
2022/07/05 03:25:09;;;;;;;;;;;19.00;95.60;;;;;;4928980;28;20017;-76
2022/07/05 03:27:37;;;;;;;;;;;18.90;95.60;;;;;;4939297;28;20017;-77
2022/07/05 03:30:04;;;;;;;;;;;18.90;95.60;;;;;;4938002;28;19935;-75
2022/07/05 03:32:33;;;;;;;;;;;18.90;95.60;;;;;;4932080;28;20014;-75
2022/07/05 03:35:01;;;;;;;;;;;18.90;95.50;;;;;;4929040;28;19931;-75
2022/07/05 03:37:29;;;;;;;;;;;18.80;95.60;;;;;;4924315;29;19958;-75
2022/07/05 03:39:57;;;;;;;;;;;18.80;95.50;;;;;;4934309;28;19970;-74
2022/07/05 03:42:23;;;;;;;;;;;18.80;95.50;;;;;;4929137;29;19970;-74
2022/07/05 03:44:52;;;;;;;;;;;18.80;95.40;;;;;;4937087;28;19933;-76
2022/07/05 03:47:20;;;;;;;;;;;18.80;95.50;;;;;;4942371;28;19934;-76
2022/07/05 03:49:47;;;;;;;;;;;18.70;95.40;;;;;;4939519;28;19950;-77
2022/07/05 03:52:14;;;;;;;;;;;18.70;95.40;;;;;;4926982;28;19979;-75
2022/07/05 03:54:44;;;;;;;;;;;18.70;95.40;;;;;;4927099;28;20017;-76
2022/07/05 03:57:11;;;;;;;;;;;18.70;95.40;;;;;;4937875;28;19926;-75
2022/07/05 03:59:38;;;;;;;;;;;18.70;95.50;;;;;;4912482;29;20006;-76
2022/07/05 04:02:07;;;;;;;;;;;18.60;95.50;;;;;;4896137;29;19934;-74
2022/07/05 04:04:34;;;;;;;;;;;18.60;95.50;;;;;;4939417;28;19937;-76
2022/07/05 04:07:02;;;;;;;;;;;18.60;95.50;;;;;;4910838;29;20585;-74
2022/07/05 04:09:29;;;;;;;;;;;18.60;95.60;;;;;;4935584;28;19927;-75
2022/07/05 04:11:56;;;;;;;;;;;18.60;95.60;;;;;;4934566;28;20390;-75
2022/07/05 04:14:24;;;;;;;;;;;18.50;95.50;;;;;;4942336;28;20017;-75
2022/07/05 04:16:53;;;;;;;;;;;18.50;95.60;;;;;;4939678;28;21261;-75
2022/07/05 04:19:21;;;;;;;;;;;18.50;95.70;;;;;;4916311;29;19931;-75
2022/07/05 04:21:48;;;;;;;;;;;18.50;95.70;;;;;;4942352;28;19934;-75
2022/07/05 04:24:15;;;;;;;;;;;18.50;95.80;;;;;;4924073;29;19927;-75
2022/07/05 04:26:43;;;;;;;;;;;18.50;95.60;;;;;;4948706;28;20037;-75
2022/07/05 04:29:10;;;;;;;;;;;18.50;95.70;;;;;;4949110;28;19926;-76
2022/07/05 04:31:39;;;;;;;;;;;18.40;95.60;;;;;;4915796;29;20322;-77
2022/07/05 04:34:06;;;;;;;;;;;18.40;95.60;;;;;;4945755;28;19933;-75
2022/07/05 04:36:40;;;;;;;;;;;18.40;95.60;;;;;;4944062;28;19969;-76
2022/07/05 04:39:07;;;;;;;;;;;18.40;95.60;;;;;;4946246;28;20314;-76
2022/07/05 04:41:36;;;;;;;;;;;18.30;95.60;;;;;;4921241;29;20420;-74
2022/07/05 04:44:05;;;;;;;;;;;18.30;95.50;;;;;;4951288;28;20398;-75
2022/07/05 04:46:33;;;;;;;;;;;18.30;95.50;;;;;;4917357;29;19975;-77
2022/07/05 04:49:01;;;;;;;;;;;18.30;95.50;;;;;;4922636;29;19927;-77
2022/07/05 04:51:28;;;;;;;;;;;18.30;95.50;;;;;;4936149;28;20298;-76
2022/07/05 04:53:56;;;;;;;;;;;18.20;95.40;;;;;;4940740;28;20013;-75
2022/07/05 04:56:23;;;;;;;;;;;18.20;95.50;;;;;;4924909;29;19934;-75
2022/07/05 04:58:50;;;;;;;;;;;18.20;95.50;;;;;;4928444;29;19931;-75
2022/07/05 05:01:17;;;;;;;;;;;18.20;95.50;;;;;;4922604;29;19930;-75
2022/07/05 05:03:44;;;;;;;;;;;18.20;95.40;;;;;;4919168;29;20027;-74
2022/07/05 05:06:11;;;;;;;;;;;18.10;95.10;;;;;;4926528;29;20584;-75
2022/07/05 05:08:37;;;;;;;;;;;18.00;95.30;;;;;;4930030;29;20312;-75
2022/07/05 05:11:06;;;;;;;;;;;17.90;95.40;;;;;;4926449;29;19935;-75
2022/07/05 05:13:33;;;;;;;;;;;17.80;96.00;;;;;;4921678;29;19955;-75
2022/07/05 05:16:00;;;;;;;;;;;17.70;96.50;;;;;;4923967;29;20361;-75
2022/07/05 05:18:27;;;;;;;;;;;17.70;96.70;;;;;;4927490;29;19955;-78
2022/07/05 05:20:55;;;;;;;;;;;17.70;96.90;;;;;;4944133;28;19986;-78
2022/07/05 05:23:22;;;;;;;;;;;17.70;97.00;;;;;;4932939;29;19982;-76
2022/07/05 05:25:49;;;;;;;;;;;17.70;97.00;;;;;;4927366;29;20286;-76
2022/07/05 05:28:17;;;;;;;;;;;17.70;97.00;;;;;;4934157;29;20476;-75
2022/07/05 05:30:44;;;;;;;;;;;17.70;97.10;;;;;;4919234;29;20006;-76
2022/07/05 05:33:11;;;;;;;;;;;17.70;97.00;;;;;;4925331;29;19927;-75
2022/07/05 05:35:38;;;;;;;;;;;17.70;97.20;;;;;;4918460;29;20005;-76
2022/07/05 05:38:05;;;;;;;;;;;17.80;97.40;;;;;;4918507;29;19931;-75
2022/07/05 05:40:32;;;;;;;;;;;17.80;97.60;;;;;;4944478;29;19930;-76
2022/07/05 05:43:00;;;;;;;;;;;17.80;97.50;;;;;;4934332;28;19931;-77
2022/07/05 05:45:28;;;;;;;;;;;17.80;97.40;;;;;;4934824;29;19935;-74
2022/07/05 05:47:55;;;;;;;;;;;17.80;97.40;;;;;;4942410;28;20440;-74
2022/07/05 05:50:23;;;;;;;;;;;17.90;97.40;;;;;;4949732;28;19966;-75
2022/07/05 05:52:50;;;;;;;;;;;17.90;97.40;;;;;;4931115;29;19926;-76
2022/07/05 05:55:17;;;;;;;;;;;17.90;97.30;;;;;;4923865;29;19934;-75
2022/07/05 05:57:44;;;;;;;;;;;17.90;97.30;;;;;;4934318;29;19970;-75
2022/07/05 06:00:12;;;;;;;;;;;17.90;97.30;;;;;;4935016;28;19927;-77
2022/07/05 06:02:40;;;;;;;;;;;17.90;97.30;;;;;;4931824;29;19930;-76
2022/07/05 06:05:07;;;;;;;;;;;17.90;97.40;;;;;;4916868;29;20388;-75
2022/07/05 06:07:44;;;;;;;;;;;17.90;97.40;;;;;;4931315;29;19973;-76
2022/07/05 06:10:11;;;;;;;;;;;18.00;97.40;;;;;;4935250;28;19927;-78
2022/07/05 06:12:37;;;;;;;;;;;18.00;97.40;;;;;;4925867;29;19934;-78
2022/07/05 06:15:04;;;;;;;;;;;18.00;97.40;;;;;;4943658;28;19942;-75
2022/07/05 06:17:36;;;;;;;;;;;18.00;97.40;;;;;;4932558;29;19933;-75
2022/07/05 06:20:06;;;;;;;;;;;18.10;97.50;;;;;;4933677;28;19930;-76
2022/07/05 06:22:32;;;;;;;;;;;18.10;97.60;;;;;;4928016;28;20483;-76
2022/07/05 06:24:59;;;;;;;;;;;18.10;97.60;;;;;;4945644;28;19933;-75
2022/07/05 06:27:26;;;;;;;;;;;18.10;97.60;;;;;;4930841;29;19935;-76
2022/07/05 06:29:53;;;;;;;;;;;18.20;97.60;;;;;;4928878;28;19935;-77
2022/07/05 06:32:20;;;;;;;;;;;18.20;97.70;;;;;;4937006;29;19934;-77
2022/07/05 06:34:47;;;;;;;;;;;18.20;97.60;;;;;;4947711;28;19957;-76
2022/07/05 06:37:15;;;;;;;;;;;18.20;97.60;;;;;;4940612;28;19931;-76
2022/07/05 06:39:43;;;;;;;;;;;18.20;97.70;;;;;;4936053;29;19927;-77
2022/07/05 06:42:10;;;;;;;;;;;18.20;97.60;;;;;;4954199;28;19935;-76
2022/07/05 06:44:37;;;;;;;;;;;18.30;97.70;;;;;;4927824;29;19941;-76
2022/07/05 06:47:04;;;;;;;;;;;18.20;97.60;;;;;;4939665;29;19974;-75
2022/07/05 06:49:31;;;;;;;;;;;18.30;97.60;;;;;;4934570;29;20389;-74
2022/07/05 06:51:58;;;;;;;;;;;18.30;97.60;;;;;;4940882;29;20025;-75
2022/07/05 06:54:26;;;;;;;;;;;18.30;97.60;;;;;;4936384;28;19931;-75
2022/07/05 06:56:55;;;;;;;;;;;18.30;97.60;;;;;;4927151;29;19931;-75
2022/07/05 06:59:21;;;;;;;;;;;18.30;97.60;;;;;;4930525;29;19926;-75
2022/07/05 07:01:48;;;;;;;;;;;18.30;97.70;;;;;;4931864;29;19926;-76
2022/07/05 07:04:15;;;;;;;;;;;18.40;97.70;;;;;;4908439;29;20397;-77
2022/07/05 07:06:42;;;;;;;;;;;18.40;97.70;;;;;;4931957;29;20436;-75
2022/07/05 07:09:21;;;;;;;;;;;18.40;97.70;;;;;;4931275;29;20017;-75
2022/07/05 07:11:49;;;;;;;;;;;18.40;97.70;;;;;;4931682;29;20353;-75
2022/07/05 07:14:16;;;;;;;;;;;18.50;97.70;;;;;;4936172;28;19927;-74
2022/07/05 07:16:43;;;;;;;;;;;18.50;97.70;;;;;;4935031;29;19947;-74
2022/07/05 07:19:10;;;;;;;;;;;18.50;97.70;;;;;;4931168;29;20381;-74
2022/07/05 07:21:37;;;;;;;;;;;18.50;97.70;;;;;;4926954;29;19943;-74
2022/07/05 07:24:04;;;;;;;;;;;18.50;97.60;;;;;;4940520;28;19927;-74
2022/07/05 07:27:02;;;;;;;;;;;18.50;97.60;;;;;;4930496;29;19994;-74
2022/07/05 07:29:19;;;;;;;;;;;18.60;97.60;;;;;;4948598;28;20736;-74
2022/07/05 07:31:46;;;;;;;;;;;18.60;97.50;;;;;;4924012;29;19931;-74
2022/07/05 07:34:13;;;;;;;;;;;18.60;97.50;;;;;;4940862;28;20405;-75
2022/07/05 07:36:40;;;;;;;;;;;18.60;97.50;;;;;;4926433;29;19942;-74
2022/07/05 07:39:07;;;;;;;;;;;18.60;97.50;;;;;;4912558;29;19931;-74
2022/07/05 07:41:34;;;;;;;;;;;18.60;97.50;;;;;;4925608;29;19942;-74
2022/07/05 07:44:01;;;;;;;;;;;18.70;97.50;;;;;;4946401;28;19927;-74
2022/07/05 07:46:29;;;;;;;;;;;18.70;97.50;;;;;;4946741;28;19966;-75
2022/07/05 07:48:56;;;;;;;;;;;18.70;97.50;;;;;;4924549;28;19955;-75
2022/07/05 07:51:23;;;;;;;;;;;18.70;97.50;;;;;;4922773;29;19934;-75
2022/07/05 07:53:50;;;;;;;;;;;18.70;97.50;;;;;;4929211;29;20394;-74
2022/07/05 07:56:16;;;;;;;;;;;18.70;97.50;;;;;;4930979;29;20151;-75
2022/07/05 07:58:43;;;;;;;;;;;18.80;97.50;;;;;;4934626;28;19927;-74
2022/07/05 08:01:11;;;;;;;;;;;18.80;97.60;;;;;;4933448;29;19970;-74
2022/07/05 08:03:39;;;;;;;;;;;18.80;97.60;;;;;;4934295;29;20346;-74
2022/07/05 08:06:07;;;;;;;;;;;18.80;97.50;;;;;;4931162;29;20160;-75
2022/07/05 08:08:34;;;;;;;;;;;18.80;97.50;;;;;;4943638;28;20014;-74
2022/07/05 08:11:01;;;;;;;;;;;18.80;97.50;;;;;;4924527;29;19970;-75
2022/07/05 08:13:28;;;;;;;;;;;18.80;97.50;;;;;;4926323;28;19926;-75
2022/07/05 08:15:55;;;;;;;;;;;18.90;97.60;;;;;;4926421;29;19931;-75
2022/07/05 08:23:52;;;;;;;;;;;18.90;97.50;;;;;;4929560;29;19926;-74
2022/07/05 08:26:19;;;;;;;;;;;18.90;97.50;;;;;;4929232;29;19927;-75
2022/07/05 08:28:46;;;;;;;;;;;18.90;97.40;;;;;;4929692;29;20394;-75
2022/07/05 08:31:13;;;;;;;;;;;18.90;97.40;;;;;;4928100;28;19927;-75
2022/07/05 08:33:39;;;;;;;;;;;18.90;97.40;;;;;;4928192;29;19930;-74
2022/07/05 08:36:08;;;;;;;;;;;18.90;97.30;;;;;;4949312;28;19935;-74
2022/07/05 08:38:35;;;;;;;;;;;19.00;97.50;;;;;;4927679;29;19931;-74
2022/07/05 08:41:02;;;;;;;;;;;19.00;97.20;;;;;;4932215;29;19927;-74
2022/07/05 08:43:30;;;;;;;;;;;19.00;97.20;;;;;;4945682;28;19935;-73
2022/07/05 08:45:57;;;;;;;;;;;19.00;97.10;;;;;;4935519;29;19970;-74
2022/07/05 08:48:25;;;;;;;;;;;19.00;97.10;;;;;;4937724;29;19934;-74
2022/07/05 08:50:52;;;;;;;;;;;19.00;97.00;;;;;;4934286;29;19950;-74
2022/07/05 08:53:20;;;;;;;;;;;19.00;97.00;;;;;;4933400;28;20203;-74
2022/07/05 08:55:48;;;;;;;;;;;19.00;96.90;;;;;;4953208;28;20021;-75
2022/07/05 08:58:14;;;;;;;;;;;19.00;96.90;;;;;;4935450;29;19982;-74
2022/07/05 09:00:43;;;;;;;;;;;19.00;96.80;;;;;;4934049;29;19927;-74
2022/07/05 09:03:09;;;;;;;;;;;19.00;96.80;;;;;;4926352;29;20113;-75
2022/07/05 09:05:40;;;;;;;;;;;19.00;96.70;;;;;;4934748;29;19974;-75
2022/07/05 09:08:08;;;;;;;;;;;19.00;96.70;;;;;;4933692;29;19973;-75
2022/07/05 09:10:38;;;;;;;;;;;19.00;96.50;;;;;;4930632;29;19978;-75
2022/07/05 09:13:05;;;;;;;;;;;19.00;96.50;;;;;;4932647;29;19926;-74
2022/07/05 09:15:31;;;;;;;;;;;19.00;96.40;;;;;;4935313;29;20342;-75
2022/07/05 09:17:58;;;;;;;;;;;19.10;96.40;;;;;;4943909;28;19979;-74
2022/07/05 09:20:27;;;;;;;;;;;19.10;96.40;;;;;;4945300;28;19986;-74
2022/07/05 09:22:54;;;;;;;;;;;19.00;96.20;;;;;;4932454;29;21690;-74
2022/07/05 09:25:23;;;;;;;;;;;19.10;96.30;;;;;;4927807;29;19931;-74
2022/07/05 09:27:52;;;;;;;;;;;19.10;96.30;;;;;;4934534;28;20293;-75
2022/07/05 09:30:26;;;;;;;;;;;19.10;96.30;;;;;;4929711;29;19934;-75
2022/07/05 09:33:17;;;;;;;;;;;19.10;96.30;;;;;;4952437;28;19981;-74
2022/07/05 09:35:44;;;;;;;;;;;19.10;96.30;;;;;;4928911;29;19930;-75
2022/07/05 09:38:18;;;;;;;;;;;19.20;96.20;;;;;;4935068;29;19927;-74
2022/07/05 09:40:49;;;;;;;;;;;19.20;96.10;;;;;;4934857;29;20362;-74
2022/07/05 09:43:18;;;;;;;;;;;19.20;96.10;;;;;;4920824;29;20014;-73
2022/07/05 09:45:54;;;;;;;;;;;19.20;96.20;;;;;;4931044;29;20413;-74
2022/07/05 09:48:21;;;;;;;;;;;19.20;96.20;;;;;;4946907;28;19931;-74
2022/07/05 09:50:49;;;;;;;;;;;19.20;96.20;;;;;;4953992;28;20001;-74
2022/07/05 09:53:16;;;;;;;;;;;19.30;96.20;;;;;;4935655;29;19927;-74
2022/07/05 09:55:43;;;;;;;;;;;19.30;96.20;;;;;;4949150;28;19927;-73
2022/07/05 09:58:13;;;;;;;;;;;19.30;96.10;;;;;;4939916;29;19950;-74
2022/07/05 10:00:41;;;;;;;;;;;19.30;96.10;;;;;;4935860;29;19927;-74
2022/07/05 10:03:08;;;;;;;;;;;19.40;96.20;;;;;;4926703;29;19935;-74
2022/07/05 10:05:35;;;;;;;;;;;19.40;96.10;;;;;;4932060;29;19926;-75
2022/07/05 10:08:02;;;;;;;;;;;19.40;96.00;;;;;;4949410;28;20456;-76
2022/07/05 10:10:30;;;;;;;;;;;19.40;96.00;;;;;;4932639;29;19937;-74
2022/07/05 10:12:57;;;;;;;;;;;19.40;95.90;;;;;;4930792;29;20282;-75
2022/07/05 10:15:25;;;;;;;;;;;19.40;95.80;;;;;;4917694;29;19974;-75
2022/07/05 10:17:54;;;;;;;;;;;19.40;95.80;;;;;;4927635;29;20377;-75
2022/07/05 10:20:25;;;;;;;;;;;19.40;95.70;;;;;;4927899;28;19982;-75
2022/07/05 10:22:52;;;;;;;;;;;19.40;95.80;;;;;;4948477;28;19930;-74
2022/07/05 10:25:19;;;;;;;;;;;19.50;95.80;;;;;;4930389;29;19934;-74
2022/07/05 10:27:47;;;;;;;;;;;19.50;95.70;;;;;;4945717;28;19927;-75
2022/07/05 10:30:15;;;;;;;;;;;19.50;95.60;;;;;;4932172;29;20317;-74
2022/07/05 10:32:43;;;;;;;;;;;19.50;95.50;;;;;;4927456;29;20468;-74
2022/07/05 10:35:11;;;;;;;;;;;19.50;95.60;;;;;;4949268;28;19927;-74
2022/07/05 10:37:38;;;;;;;;;;;19.50;95.40;;;;;;4924043;29;19935;-75
2022/07/05 10:40:06;;;;;;;;;;;19.50;94.90;;;;;;4937096;29;19931;-74
2022/07/05 10:42:35;;;;;;;;;;;19.50;94.70;;;;;;4930841;29;19927;-74
2022/07/05 10:47:29;;;;;;;;;;;19.50;94.90;;;;;;4946512;23;20392;-73
2022/07/05 10:50:00;;;;;;;;;;;19.50;95.00;;;;;;4968418;28;19930;-74
2022/07/05 10:52:31;;;;;;;;;;;19.60;95.10;;;;;;4949074;28;20274;-74
2022/07/05 10:55:21;;;;;;;;;;;19.60;94.80;;;;;;4953053;28;19934;-75
2022/07/05 10:58:06;;;;;;;;;;;19.60;94.90;;;;;;4947005;28;19930;-74
2022/07/05 11:00:33;;;;;;;;;;;19.60;94.80;;;;;;4942172;28;19981;-74
2022/07/05 11:03:06;;;;;;;;;;;19.60;94.50;;;;;;4949913;28;19933;-74
2022/07/05 11:05:33;;;;;;;;;;;19.60;94.40;;;;;;4947853;28;20758;-74
2022/07/05 11:08:02;;;;;;;;;;;19.60;94.50;;;;;;4947106;28;20433;-74
2022/07/05 11:10:31;;;;;;;;;;;19.60;94.60;;;;;;4946363;28;19966;-74
2022/07/05 11:12:58;;;;;;;;;;;19.70;94.70;;;;;;4944956;28;19934;-74
2022/07/05 11:15:25;;;;;;;;;;;19.70;94.80;;;;;;4946937;28;20282;-74
2022/07/05 11:18:12;;;;;;;;;;;19.70;94.80;;;;;;4946909;28;19982;-74
2022/07/05 11:20:38;;;;;;;;;;;19.70;94.90;;;;;;4948510;28;19949;-74
2022/07/05 11:23:08;;;;;;;;;;;19.70;94.90;;;;;;4947787;28;20017;-72
2022/07/05 11:25:36;;;;;;;;;;;19.80;94.80;;;;;;4946190;28;19938;-73
2022/07/05 11:28:07;;;;;;;;;;;19.80;94.80;;;;;;4949926;28;20021;-74
2022/07/05 11:30:56;;;;;;;;;;;19.80;94.80;;;;;;4951068;28;19977;-74
2022/07/05 11:33:26;;;;;;;;;;;19.80;94.80;;;;;;4945787;28;19974;-74
2022/07/05 11:35:53;;;;;;;;;;;19.80;95.00;;;;;;4950588;28;19934;-74
2022/07/05 11:38:22;;;;;;;;;;;19.80;94.80;;;;;;4944264;28;20007;-75
2022/07/05 11:40:48;;;;;;;;;;;19.90;94.70;;;;;;4956415;28;20013;-74
2022/07/05 11:43:15;;;;;;;;;;;19.90;94.80;;;;;;4946691;28;20428;-74
2022/07/05 11:45:44;;;;;;;;;;;19.90;94.70;;;;;;4945163;28;19926;-74
2022/07/05 11:48:15;;;;;;;;;;;19.90;94.30;;;;;;4948536;28;19926;-74
2022/07/05 11:50:43;;;;;;;;;;;19.90;94.10;;;;;;4948544;28;19927;-74
2022/07/05 11:53:11;;;;;;;;;;;19.90;94.20;;;;;;4944372;28;20401;-74
2022/07/05 11:55:40;;;;;;;;;;;20.00;93.90;;;;;;4948531;28;19926;-74
2022/07/05 11:58:09;;;;;;;;;;;20.00;93.90;;;;;;4948044;28;19960;-74
2022/07/05 12:00:37;;;;;;;;;;;20.00;94.00;;;;;;4946786;28;20053;-73
2022/07/05 12:03:12;;;;;;;;;;;20.00;94.10;;;;;;4947407;28;19930;-74
2022/07/05 12:05:41;;;;;;;;;;;20.00;94.00;;;;;;4945646;28;19993;-73
2022/07/05 12:08:09;;;;;;;;;;;20.10;94.10;;;;;;4944426;28;19934;-75
2022/07/05 12:13:23;;;;;;;;;;;20.10;94.20;;;;;;4943442;28;20491;-74
2022/07/05 12:15:51;;;;;;;;;;;20.10;94.10;;;;;;4946741;28;19926;-74
2022/07/05 12:18:19;;;;;;;;;;;20.10;94.10;;;;;;4954899;28;19941;-73
2022/07/05 12:20:50;;;;;;;;;;;20.20;94.10;;;;;;4949319;28;19931;-74
2022/07/05 12:23:27;;;;;;;;;;;20.20;94.20;;;;;;4949709;28;20472;-74
2022/07/05 12:25:55;;;;;;;;;;;20.20;93.90;;;;;;4956205;28;19935;-74
2022/07/05 12:28:23;;;;;;;;;;;20.20;93.80;;;;;;4952906;28;19926;-74
2022/07/05 12:30:50;;;;;;;;;;;20.20;93.60;;;;;;4952547;28;19935;-74
2022/07/05 12:33:21;;;;;;;;;;;20.20;93.60;;;;;;4953535;28;20388;-74
2022/07/05 12:35:50;;;;;;;;;;;20.30;93.60;;;;;;4949699;28;19927;-74
2022/07/05 12:38:18;;;;;;;;;;;20.30;93.50;;;;;;4946544;28;20343;-74
2022/07/05 12:40:46;;;;;;;;;;;20.40;93.10;;;;;;4951674;28;19927;-74
2022/07/05 12:43:13;;;;;;;;;;;20.40;93.00;;;;;;4951346;28;19930;-74
2022/07/05 12:45:43;;;;;;;;;;;20.40;93.20;;;;;;4952354;28;19926;-74
2022/07/05 12:48:10;;;;;;;;;;;20.40;93.40;;;;;;4954533;28;19935;-75
2022/07/05 12:50:47;;;;;;;;;;;20.40;93.00;;;;;;4950210;28;20033;-73
2022/07/05 12:58:50;;;;;;;;;;;20.50;92.80;;;;;;4941608;28;19936;-74
2022/07/05 13:01:25;;;;;;;;;;;20.50;92.90;;;;;;4951199;28;19942;-74
2022/07/05 13:03:59;;;;;;;;;;;20.60;92.90;;;;;;4949552;28;19926;-74
2022/07/05 13:06:40;;;;;;;;;;;20.60;92.80;;;;;;4950296;28;19927;-74
2022/07/05 13:09:07;;;;;;;;;;;20.70;92.80;;;;;;4945826;28;20313;-74
2022/07/05 13:11:34;;;;;;;;;;;20.70;92.50;;;;;;4946965;28;19936;-75
2022/07/05 13:14:00;;;;;;;;;;;20.70;92.60;;;;;;4950472;28;20365;-74
2022/07/05 13:16:29;;;;;;;;;;;20.70;92.30;;;;;;4948592;28;20306;-74
2022/07/05 13:18:56;;;;;;;;;;;20.70;92.10;;;;;;4951475;28;19926;-74
2022/07/05 13:21:22;;;;;;;;;;;20.80;91.80;;;;;;4950319;28;19981;-74
2022/07/05 13:23:49;;;;;;;;;;;20.80;91.70;;;;;;4953812;28;19954;-74
2022/07/05 13:26:16;;;;;;;;;;;20.90;91.60;;;;;;4949083;28;20674;-75
2022/07/05 13:28:43;;;;;;;;;;;20.90;91.60;;;;;;4954085;28;19933;-73
2022/07/05 13:31:11;;;;;;;;;;;20.90;91.30;;;;;;4951387;28;20290;-74
2022/07/05 13:33:39;;;;;;;;;;;20.90;90.70;;;;;;4951142;28;20021;-75
2022/07/05 13:36:06;;;;;;;;;;;21.00;90.70;;;;;;4947309;28;19949;-74
2022/07/05 13:38:33;;;;;;;;;;;21.00;90.80;;;;;;4946663;28;19973;-74
2022/07/05 13:41:00;;;;;;;;;;;21.00;90.60;;;;;;4951987;28;19989;-73
2022/07/05 13:43:26;;;;;;;;;;;21.00;90.40;;;;;;4945499;28;19938;-74
2022/07/05 13:45:53;;;;;;;;;;;21.00;90.00;;;;;;4949313;28;19927;-74
2022/07/05 13:48:20;;;;;;;;;;;21.10;90.10;;;;;;4951217;28;19985;-74
2022/07/05 13:50:48;;;;;;;;;;;21.10;90.20;;;;;;4949465;28;20302;-74
2022/07/05 13:53:15;;;;;;;;;;;21.20;90.20;;;;;;4950595;28;19938;-74
2022/07/05 13:55:42;;;;;;;;;;;21.20;90.20;;;;;;4951779;28;20393;-74
2022/07/05 13:58:09;;;;;;;;;;;21.20;89.80;;;;;;4954831;28;19926;-75
2022/07/05 14:00:36;;;;;;;;;;;21.30;90.20;;;;;;4946481;28;19926;-74
2022/07/05 14:03:03;;;;;;;;;;;21.30;89.60;;;;;;4948766;28;19930;-75
2022/07/05 14:05:29;;;;;;;;;;;21.40;89.00;;;;;;4946537;28;19927;-74
2022/07/05 14:07:58;;;;;;;;;;;21.40;89.20;;;;;;4952377;28;19968;-74
2022/07/05 14:10:25;;;;;;;;;;;21.40;89.30;;;;;;4947016;28;19930;-74
2022/07/05 14:12:51;;;;;;;;;;;21.50;89.80;;;;;;4952119;28;20308;-74
2022/07/05 14:15:18;;;;;;;;;;;21.50;90.00;;;;;;4963717;28;19963;-74
2022/07/05 14:17:45;;;;;;;;;;;21.60;90.20;;;;;;4945849;28;19935;-74
2022/07/05 14:20:13;;;;;;;;;;;21.60;90.30;;;;;;4945963;28;20351;-74
2022/07/05 14:22:40;;;;;;;;;;;21.70;90.30;;;;;;4948048;28;19930;-74
2022/07/05 14:25:08;;;;;;;;;;;21.70;90.60;;;;;;4947443;28;19933;-74
2022/07/05 14:27:35;;;;;;;;;;;21.80;90.90;;;;;;4945576;28;19934;-74
2022/07/05 14:30:03;;;;;;;;;;;21.80;90.60;;;;;;4948771;28;20420;-74
2022/07/05 14:32:30;;;;;;;;;;;21.80;90.30;;;;;;4950375;28;19981;-75
2022/07/05 14:34:56;;;;;;;;;;;21.90;90.20;;;;;;4947850;28;19934;-75
2022/07/05 14:37:23;;;;;;;;;;;21.90;89.90;;;;;;4951510;28;19930;-75
2022/07/05 14:39:50;;;;;;;;;;;22.00;88.20;;;;;;4951084;28;20042;-75